createdAt,value
2022-09-25T00:02:52.733Z,100134
2022-09-25T00:08:44.582Z,100130
2022-09-25T00:14:35.037Z,100137
2022-09-25T00:20:26.006Z,100143
2022-09-25T00:26:16.893Z,100143
2022-09-25T00:32:08.002Z,100143
2022-09-25T00:38:00.388Z,100138
2022-09-25T00:43:51.879Z,100135
2022-09-25T00:49:43.068Z,100138
2022-09-25T00:55:33.954Z,100130
2022-09-25T01:01:25.769Z,100129
2022-09-25T01:07:17.156Z,100131
2022-09-25T01:13:08.440Z,100131
2022-09-25T01:18:59.357Z,100130
2022-09-25T01:24:50.707Z,100122
2022-09-25T01:30:42.358Z,100126
2022-09-25T01:36:33.364Z,100126
2022-09-25T01:42:24.312Z,100122
2022-09-25T01:48:15.512Z,100129
2022-09-25T01:54:03.863Z,100134
2022-09-25T01:59:55.905Z,100130
2022-09-25T02:05:47.300Z,100130
2022-09-25T02:11:35.789Z,100127
2022-09-25T02:17:24.946Z,100129
2022-09-25T02:23:15.719Z,100126
2022-09-25T02:29:05.902Z,100126
2022-09-25T02:34:58.055Z,100126
2022-09-25T02:40:50.302Z,100127
2022-09-25T02:46:41.046Z,100131
2022-09-25T02:52:31.851Z,100141
2022-09-25T02:58:24.722Z,100137
2022-09-25T03:04:16.199Z,100130
2022-09-25T03:10:07.049Z,100132
2022-09-25T03:15:59.060Z,100135
2022-09-25T03:21:50.747Z,100140
2022-09-25T03:27:42.718Z,100145
2022-09-25T03:33:34.218Z,100142
2022-09-25T03:39:24.906Z,100134
2022-09-25T03:45:15.924Z,100138
2022-09-25T03:51:07.081Z,100135
2022-09-25T03:56:59.544Z,100132
2022-09-25T04:02:51.319Z,100138
2022-09-25T04:08:43.873Z,100134
2022-09-25T04:14:35.132Z,100129
2022-09-25T04:20:25.398Z,100127
2022-09-25T04:26:16.435Z,100130
2022-09-25T04:33:12.667Z,100140
2022-09-25T04:39:03.184Z,100136
2022-09-25T04:44:53.961Z,100135
2022-09-25T04:50:45.902Z,100143
2022-09-25T04:57:12.798Z,100145
2022-09-25T05:04:01.879Z,100143
2022-09-25T09:49:47.669Z,100272
2022-09-25T11:47:12.785Z,100233
2022-09-25T12:34:23.219Z,100202
2022-09-25T12:40:30.871Z,100202
2022-09-25T13:06:49.635Z,100182
2022-09-25T13:13:13.109Z,100174
2022-09-25T13:19:17.985Z,100160
2022-09-25T13:38:20.116Z,100139
2022-09-25T13:44:20.197Z,100141
2022-09-25T13:50:26.360Z,100151
2022-09-25T13:56:23.223Z,100145
2022-09-25T14:02:12.346Z,100139
2022-09-25T14:08:21.322Z,100134
2022-09-25T14:14:18.262Z,100139
2022-09-25T14:20:08.952Z,100130
2022-09-25T14:26:07.064Z,100124
2022-09-25T14:39:02.730Z,100125
2022-09-25T14:45:26.288Z,100105
2022-09-25T14:51:33.608Z,100104
2022-09-25T14:57:28.157Z,100113
2022-09-25T15:03:18.001Z,100112
2022-09-25T15:09:09.098Z,100109
2022-09-25T15:15:00.575Z,100098
2022-09-25T15:20:51.350Z,100089
2022-09-25T15:26:42.441Z,100089
2022-09-25T15:32:32.715Z,100099
2022-09-25T15:38:23.009Z,100086
2022-09-25T15:44:13.561Z,100088
2022-09-25T15:50:09.015Z,100083
2022-09-25T15:55:59.135Z,100076
2022-09-25T16:01:50.681Z,100076
2022-09-25T16:07:42.982Z,100074
2022-09-25T16:13:38.265Z,100076
2022-09-25T16:19:29.104Z,100073
2022-09-25T16:25:20.035Z,100076
2022-09-25T16:31:10.708Z,100077
2022-09-25T16:37:02.217Z,100072
2022-09-25T16:42:53.220Z,100075
2022-09-25T16:48:43.183Z,100073
2022-09-25T16:54:34.053Z,100079
2022-09-25T17:00:24.673Z,100077
2022-09-25T17:06:15.233Z,100073
2022-09-25T17:12:05.932Z,100070
2022-09-25T17:17:56.197Z,100073
2022-09-25T17:23:47.090Z,100084
2022-09-25T17:29:36.952Z,100090
2022-09-25T17:35:27.746Z,100089
2022-09-25T17:41:17.233Z,100090
2022-09-25T17:47:07.905Z,100088
2022-09-25T17:52:57.685Z,100086
2022-09-25T17:58:48.023Z,100096
2022-09-25T18:04:38.520Z,100106
2022-09-25T18:10:29.295Z,100105
2022-09-25T18:16:19.725Z,100108
2022-09-25T18:22:09.807Z,100107
2022-09-25T18:27:59.882Z,100109
2022-09-25T18:33:50.739Z,100113
2022-09-25T18:39:41.133Z,100112
2022-09-25T18:45:31.510Z,100114
2022-09-25T18:51:20.807Z,100115
2022-09-25T18:57:11.109Z,100115
2022-09-25T19:03:01.959Z,100112
2022-09-25T19:08:54.638Z,100106
2022-09-25T19:14:45.101Z,100107
2022-09-25T19:20:33.601Z,100102
2022-09-25T19:26:23.205Z,100101
2022-09-25T19:32:14.764Z,100107
2022-09-25T19:38:04.213Z,100104
2022-09-25T19:43:59.571Z,100104
2022-09-25T19:49:53.474Z,100104
2022-09-25T19:55:44.332Z,100106
2022-09-25T20:01:37.306Z,100102
2022-09-25T20:07:28.419Z,100106
2022-09-25T20:13:19.714Z,100114
2022-09-25T20:19:11.643Z,100112
2022-09-25T20:25:01.630Z,100101
2022-09-25T20:30:52.706Z,100098
2022-09-25T20:36:42.265Z,100088
2022-09-25T20:42:32.671Z,100092
2022-09-25T20:48:22.727Z,100084
2022-09-25T20:54:13.792Z,100083
2022-09-25T21:00:04.183Z,100082
2022-09-25T21:05:54.361Z,100089
2022-09-25T21:11:45.089Z,100088
2022-09-25T21:17:37.614Z,100076
2022-09-25T21:23:28.550Z,100071
2022-09-25T21:29:19.785Z,100078
2022-09-25T21:35:11.752Z,100064
2022-09-25T21:41:03.220Z,100060
2022-09-25T21:46:54.007Z,100057
2022-09-25T21:52:46.554Z,100051
2022-09-25T21:58:37.094Z,100047
2022-09-25T22:04:27.703Z,100036
2022-09-25T22:10:18.529Z,100031
2022-09-25T22:16:10.806Z,100030
2022-09-25T22:22:02.317Z,100032
2022-09-25T22:27:54.064Z,100026
2022-09-25T22:33:47.087Z,100026
2022-09-25T22:39:37.641Z,100016
2022-09-25T22:45:30.255Z,100010
2022-09-25T22:51:23.325Z,100017
2022-09-25T22:57:14.178Z,100012
2022-09-25T23:03:05.248Z,100002
2022-09-25T23:08:55.143Z,100009
2022-09-25T23:14:45.945Z,99994
2022-09-25T23:20:38.102Z,99982
2022-09-25T23:26:30.146Z,99973
2022-09-25T23:32:20.800Z,99969
2022-09-25T23:38:09.785Z,99959
2022-09-25T23:44:00.601Z,99965
2022-09-25T23:49:51.427Z,99954
2022-09-25T23:55:43.500Z,99947
